sensor_id;sensor_type;location;lat;lon;timestamp;pressure;altitude;pressure_sealevel;temperature;humidity
71109;BME280;59614;51.012;-1.648;2023-03-14T00:01:53;97911.75;;;8.55;100.00
71109;BME280;59614;51.012;-1.648;2023-03-14T00:04:19;97903.91;;;8.53;100.00
71109;BME280;59614;51.012;-1.648;2023-03-14T00:06:44;97913.72;;;8.49;100.00
71109;BME280;59614;51.012;-1.648;2023-03-14T00:09:12;97917.13;;;8.52;100.00
71109;BME280;59614;51.012;-1.648;2023-03-14T00:11:37;97917.13;;;8.52;100.00
71109;BME280;59614;51.012;-1.648;2023-03-14T00:14:03;97928.56;;;8.50;100.00
71109;BME280;59614;51.012;-1.648;2023-03-14T00:16:28;97957.50;;;8.50;100.00
71109;BME280;59614;51.012;-1.648;2023-03-14T00:18:59;97978.84;;;8.24;100.00
71109;BME280;59614;51.012;-1.648;2023-03-14T00:21:24;97997.63;;;7.95;100.00
71109;BME280;59614;51.012;-1.648;2023-03-14T00:23:50;98008.47;;;7.68;100.00
71109;BME280;59614;51.012;-1.648;2023-03-14T00:26:18;98012.72;;;7.50;100.00
71109;BME280;59614;51.012;-1.648;2023-03-14T00:28:45;98025.47;;;7.39;100.00
71109;BME280;59614;51.012;-1.648;2023-03-14T00:31:13;98022.81;;;7.18;100.00
71109;BME280;59614;51.012;-1.648;2023-03-14T00:33:39;98039.06;;;7.06;100.00
71109;BME280;59614;51.012;-1.648;2023-03-14T00:36:07;98048.88;;;7.01;100.00
71109;BME280;59614;51.012;-1.648;2023-03-14T00:38:36;98062.97;;;6.98;100.00
71109;BME280;59614;51.012;-1.648;2023-03-14T00:41:10;98074.47;;;6.94;100.00
71109;BME280;59614;51.012;-1.648;2023-03-14T00:43:36;98074.00;;;6.84;100.00
71109;BME280;59614;51.012;-1.648;2023-03-14T00:46:02;98081.00;;;6.84;100.00
71109;BME280;59614;51.012;-1.648;2023-03-14T00:48:27;98105.41;;;6.86;100.00
71109;BME280;59614;51.012;-1.648;2023-03-14T00:50:53;98112.81;;;6.74;100.00
71109;BME280;59614;51.012;-1.648;2023-03-14T00:53:18;98116.72;;;6.64;100.00
71109;BME280;59614;51.012;-1.648;2023-03-14T00:55:44;98136.03;;;6.61;100.00
71109;BME280;59614;51.012;-1.648;2023-03-14T00:58:11;98146.38;;;6.64;100.00
71109;BME280;59614;51.012;-1.648;2023-03-14T01:00:38;98153.63;;;6.58;100.00
71109;BME280;59614;51.012;-1.648;2023-03-14T01:03:04;98162.78;;;6.46;100.00
71109;BME280;59614;51.012;-1.648;2023-03-14T01:05:29;98179.53;;;6.42;100.00
71109;BME280;59614;51.012;-1.648;2023-03-14T01:07:55;98182.19;;;6.40;100.00
71109;BME280;59614;51.012;-1.648;2023-03-14T01:10:20;98202.50;;;6.35;100.00
71109;BME280;59614;51.012;-1.648;2023-03-14T01:12:46;98198.19;;;6.32;100.00
71109;BME280;59614;51.012;-1.648;2023-03-14T01:15:11;98209.47;;;6.34;100.00
71109;BME280;59614;51.012;-1.648;2023-03-14T01:17:37;98221.94;;;6.28;100.00
71109;BME280;59614;51.012;-1.648;2023-03-14T01:20:07;98228.56;;;6.13;100.00
71109;BME280;59614;51.012;-1.648;2023-03-14T01:22:37;98243.75;;;6.01;100.00
71109;BME280;59614;51.012;-1.648;2023-03-14T01:25:05;98253.75;;;5.88;100.00
71109;BME280;59614;51.012;-1.648;2023-03-14T01:27:32;98262.84;;;5.77;100.00
71109;BME280;59614;51.012;-1.648;2023-03-14T01:29:57;98282.38;;;5.66;100.00
71109;BME280;59614;51.012;-1.648;2023-03-14T01:32:24;98293.19;;;5.55;100.00
71109;BME280;59614;51.012;-1.648;2023-03-14T01:34:49;98309.25;;;5.43;100.00
71109;BME280;59614;51.012;-1.648;2023-03-14T01:37:14;98312.00;;;5.38;100.00
71109;BME280;59614;51.012;-1.648;2023-03-14T01:39:40;98323.34;;;5.37;100.00
71109;BME280;59614;51.012;-1.648;2023-03-14T01:42:05;98332.38;;;5.27;100.00
71109;BME280;59614;51.012;-1.648;2023-03-14T01:47:18;98353.66;;;5.15;100.00
71109;BME280;59614;51.012;-1.648;2023-03-14T01:49:46;98366.97;;;5.05;100.00
71109;BME280;59614;51.012;-1.648;2023-03-14T01:52:16;98371.53;;;4.97;100.00
71109;BME280;59614;51.012;-1.648;2023-03-14T01:54:49;98385.03;;;4.82;100.00
71109;BME280;59614;51.012;-1.648;2023-03-14T01:57:32;98395.47;;;4.82;100.00
71109;BME280;59614;51.012;-1.648;2023-03-14T02:00:08;98405.94;;;4.80;100.00
71109;BME280;59614;51.012;-1.648;2023-03-14T02:02:37;98403.75;;;4.64;100.00
71109;BME280;59614;51.012;-1.648;2023-03-14T02:05:05;98422.03;;;4.64;100.00
71109;BME280;59614;51.012;-1.648;2023-03-14T02:07:35;98430.13;;;4.54;100.00
71109;BME280;59614;51.012;-1.648;2023-03-14T02:10:03;98436.22;;;4.53;100.00
71109;BME280;59614;51.012;-1.648;2023-03-14T02:12:29;98448.78;;;4.38;100.00
71109;BME280;59614;51.012;-1.648;2023-03-14T02:14:55;98455.69;;;4.39;99.03
71109;BME280;59614;51.012;-1.648;2023-03-14T02:17:22;98466.34;;;4.30;100.00
71109;BME280;59614;51.012;-1.648;2023-03-14T02:22:23;98482.13;;;4.25;98.53
71109;BME280;59614;51.012;-1.648;2023-03-14T02:25:55;98490.91;;;4.23;99.42
71109;BME280;59614;51.012;-1.648;2023-03-14T02:27:55;98501.56;;;4.13;99.56
71109;BME280;59614;51.012;-1.648;2023-03-14T02:30:23;98508.69;;;4.05;100.00
71109;BME280;59614;51.012;-1.648;2023-03-14T02:32:55;98512.16;;;4.06;100.00
71109;BME280;59614;51.012;-1.648;2023-03-14T02:35:26;98517.50;;;3.99;100.00
71109;BME280;59614;51.012;-1.648;2023-03-14T02:40:25;98540.19;;;3.96;100.00
71109;BME280;59614;51.012;-1.648;2023-03-14T02:42:51;98548.97;;;3.92;100.00
71109;BME280;59614;51.012;-1.648;2023-03-14T02:48:13;98572.63;;;3.84;100.00
71109;BME280;59614;51.012;-1.648;2023-03-14T02:50:39;98579.66;;;3.80;100.00
71109;BME280;59614;51.012;-1.648;2023-03-14T02:53:05;98588.31;;;3.81;100.00
71109;BME280;59614;51.012;-1.648;2023-03-14T02:55:30;98595.44;;;3.73;100.00
71109;BME280;59614;51.012;-1.648;2023-03-14T02:57:56;98607.72;;;3.66;100.00
71109;BME280;59614;51.012;-1.648;2023-03-14T03:00:21;98606.03;;;3.63;100.00
71109;BME280;59614;51.012;-1.648;2023-03-14T03:02:47;98616.47;;;3.63;100.00
71109;BME280;59614;51.012;-1.648;2023-03-14T03:05:12;98627.06;;;3.54;100.00
71109;BME280;59614;51.012;-1.648;2023-03-14T03:07:37;98621.06;;;3.49;100.00
71109;BME280;59614;51.012;-1.648;2023-03-14T03:10:04;98631.41;;;3.53;100.00
71109;BME280;59614;51.012;-1.648;2023-03-14T03:12:29;98636.63;;;3.53;100.00
71109;BME280;59614;51.012;-1.648;2023-03-14T03:14:54;98637.66;;;3.43;100.00
71109;BME280;59614;51.012;-1.648;2023-03-14T03:17:20;98642.84;;;3.46;100.00
71109;BME280;59614;51.012;-1.648;2023-03-14T03:19:45;98649.03;;;3.39;100.00
71109;BME280;59614;51.012;-1.648;2023-03-14T03:22:11;98655.19;;;3.35;100.00
71109;BME280;59614;51.012;-1.648;2023-03-14T03:24:36;98658.69;;;3.34;100.00
71109;BME280;59614;51.012;-1.648;2023-03-14T03:27:02;98660.47;;;3.29;100.00
71109;BME280;59614;51.012;-1.648;2023-03-14T03:29:27;98666.53;;;3.31;100.00
71109;BME280;59614;51.012;-1.648;2023-03-14T03:31:52;98680.44;;;3.33;100.00
71109;BME280;59614;51.012;-1.648;2023-03-14T03:34:18;98681.34;;;3.30;100.00
71109;BME280;59614;51.012;-1.648;2023-03-14T03:36:43;98684.06;;;3.21;100.00
71109;BME280;59614;51.012;-1.648;2023-03-14T03:39:09;98686.69;;;3.19;100.00
71109;BME280;59614;51.012;-1.648;2023-03-14T03:41:34;98699.75;;;3.19;100.00
71109;BME280;59614;51.012;-1.648;2023-03-14T03:44:00;98696.28;;;3.17;100.00
71109;BME280;59614;51.012;-1.648;2023-03-14T03:46:26;98712.00;;;3.14;100.00
71109;BME280;59614;51.012;-1.648;2023-03-14T03:48:59;98712.94;;;3.08;100.00
71109;BME280;59614;51.012;-1.648;2023-03-14T03:51:25;98717.25;;;3.11;100.00
71109;BME280;59614;51.012;-1.648;2023-03-14T03:53:51;98732.94;;;3.05;100.00
71109;BME280;59614;51.012;-1.648;2023-03-14T03:56:17;98725.13;;;3.05;100.00
71109;BME280;59614;51.012;-1.648;2023-03-14T03:58:42;98733.78;;;3.07;100.00
71109;BME280;59614;51.012;-1.648;2023-03-14T04:01:09;98735.44;;;3.14;100.00
71109;BME280;59614;51.012;-1.648;2023-03-14T04:03:35;98743.19;;;3.20;100.00
71109;BME280;59614;51.012;-1.648;2023-03-14T04:06:06;98759.66;;;3.21;100.00
71109;BME280;59614;51.012;-1.648;2023-03-14T04:08:31;98765.72;;;3.24;100.00
71109;BME280;59614;51.012;-1.648;2023-03-14T04:10:58;98764.81;;;3.27;100.00
71109;BME280;59614;51.012;-1.648;2023-03-14T04:13:24;98775.22;;;3.30;100.00
71109;BME280;59614;51.012;-1.648;2023-03-14T04:15:50;98763.78;;;3.39;100.00
71109;BME280;59614;51.012;-1.648;2023-03-14T04:18:16;98782.81;;;3.47;100.00
71109;BME280;59614;51.012;-1.648;2023-03-14T04:20:42;98789.66;;;3.54;100.00
71109;BME280;59614;51.012;-1.648;2023-03-14T04:23:08;98787.84;;;3.60;100.00
71109;BME280;59614;51.012;-1.648;2023-03-14T04:25:34;98796.41;;;3.66;100.00
71109;BME280;59614;51.012;-1.648;2023-03-14T04:27:59;98798.13;;;3.70;100.00
71109;BME280;59614;51.012;-1.648;2023-03-14T04:30:25;98804.09;;;3.77;100.00
71109;BME280;59614;51.012;-1.648;2023-03-14T04:32:50;98815.28;;;3.85;100.00
71109;BME280;59614;51.012;-1.648;2023-03-14T04:35:15;98817.91;;;3.85;100.00
71109;BME280;59614;51.012;-1.648;2023-03-14T04:37:41;98819.63;;;3.88;100.00
71109;BME280;59614;51.012;-1.648;2023-03-14T04:40:09;98818.66;;;3.94;100.00
71109;BME280;59614;51.012;-1.648;2023-03-14T04:42:34;98826.50;;;3.92;100.00
71109;BME280;59614;51.012;-1.648;2023-03-14T04:45:00;98836.94;;;3.92;100.00
71109;BME280;59614;51.012;-1.648;2023-03-14T04:47:26;98841.16;;;4.01;100.00
71109;BME280;59614;51.012;-1.648;2023-03-14T04:49:51;98839.44;;;4.00;100.00
71109;BME280;59614;51.012;-1.648;2023-03-14T04:52:17;98840.28;;;4.00;100.00
71109;BME280;59614;51.012;-1.648;2023-03-14T04:54:42;98844.69;;;3.97;100.00
71109;BME280;59614;51.012;-1.648;2023-03-14T04:57:08;98858.56;;;4.00;100.00
71109;BME280;59614;51.012;-1.648;2023-03-14T04:59:34;98853.34;;;4.02;100.00
71109;BME280;59614;51.012;-1.648;2023-03-14T05:01:59;98861.22;;;3.99;100.00
71109;BME280;59614;51.012;-1.648;2023-03-14T05:04:25;98866.47;;;3.96;100.00
71109;BME280;59614;51.012;-1.648;2023-03-14T05:06:50;98874.25;;;3.99;100.00
71109;BME280;59614;51.012;-1.648;2023-03-14T05:09:15;98863.81;;;3.99;100.00
71109;BME280;59614;51.012;-1.648;2023-03-14T05:11:41;98868.25;;;3.94;100.00
71109;BME280;59614;51.012;-1.648;2023-03-14T05:14:06;98870.88;;;3.92;100.00
71109;BME280;59614;51.012;-1.648;2023-03-14T05:16:32;98883.22;;;3.81;100.00
71109;BME280;59614;51.012;-1.648;2023-03-14T05:18:57;98893.72;;;3.76;100.00
71109;BME280;59614;51.012;-1.648;2023-03-14T05:21:23;98893.00;;;3.65;100.00
71109;BME280;59614;51.012;-1.648;2023-03-14T05:23:48;98892.19;;;3.60;100.00
71109;BME280;59614;51.012;-1.648;2023-03-14T05:26:14;98897.50;;;3.52;100.00
71109;BME280;59614;51.012;-1.648;2023-03-14T05:28:41;98895.69;;;3.59;100.00
71109;BME280;59614;51.012;-1.648;2023-03-14T05:31:08;98911.41;;;3.52;100.00
71109;BME280;59614;51.012;-1.648;2023-03-14T05:33:33;98899.34;;;3.45;100.00
71109;BME280;59614;51.012;-1.648;2023-03-14T05:35:59;98886.28;;;3.44;100.00
71109;BME280;59614;51.012;-1.648;2023-03-14T05:38:24;98903.63;;;3.48;100.00
71109;BME280;59614;51.012;-1.648;2023-03-14T05:40:50;98921.09;;;3.41;100.00
71109;BME280;59614;51.012;-1.648;2023-03-14T05:43:15;98934.22;;;3.35;100.00
71109;BME280;59614;51.012;-1.648;2023-03-14T05:45:41;98943.75;;;3.37;100.00
71109;BME280;59614;51.012;-1.648;2023-03-14T05:48:07;98944.66;;;3.35;100.00
71109;BME280;59614;51.012;-1.648;2023-03-14T05:50:33;98952.47;;;3.33;100.00
71109;BME280;59614;51.012;-1.648;2023-03-14T05:52:58;98961.16;;;3.37;100.00
71109;BME280;59614;51.012;-1.648;2023-03-14T05:55:24;98962.16;;;3.23;100.00
71109;BME280;59614;51.012;-1.648;2023-03-14T05:57:49;98963.88;;;3.23;100.00
71109;BME280;59614;51.012;-1.648;2023-03-14T06:00:15;98968.28;;;3.16;100.00
71109;BME280;59614;51.012;-1.648;2023-03-14T06:02:41;98979.63;;;3.15;100.00
71109;BME280;59614;51.012;-1.648;2023-03-14T06:05:07;98971.84;;;3.12;100.00
71109;BME280;59614;51.012;-1.648;2023-03-14T06:07:32;98988.38;;;3.08;100.00
71109;BME280;59614;51.012;-1.648;2023-03-14T06:09:58;98998.88;;;3.02;100.00
71109;BME280;59614;51.012;-1.648;2023-03-14T06:12:24;98998.88;;;3.02;100.00
71109;BME280;59614;51.012;-1.648;2023-03-14T06:14:49;99012.78;;;2.98;100.00
71109;BME280;59614;51.012;-1.648;2023-03-14T06:17:15;99016.28;;;2.93;100.00
71109;BME280;59614;51.012;-1.648;2023-03-14T06:19:40;99014.59;;;2.92;100.00
71109;BME280;59614;51.012;-1.648;2023-03-14T06:22:06;99017.19;;;2.92;100.00
71109;BME280;59614;51.012;-1.648;2023-03-14T06:24:31;99021.53;;;2.90;100.00
71109;BME280;59614;51.012;-1.648;2023-03-14T06:26:56;99031.91;;;2.93;100.00
71109;BME280;59614;51.012;-1.648;2023-03-14T06:29:22;99028.44;;;2.98;100.00
71109;BME280;59614;51.012;-1.648;2023-03-14T06:31:47;99034.47;;;3.04;100.00
71109;BME280;59614;51.012;-1.648;2023-03-14T06:34:13;99037.03;;;3.06;100.00
71109;BME280;59614;51.012;-1.648;2023-03-14T06:36:39;99044.84;;;3.09;100.00
71109;BME280;59614;51.012;-1.648;2023-03-14T06:39:04;99055.22;;;3.17;100.00
71109;BME280;59614;51.012;-1.648;2023-03-14T06:41:30;99060.38;;;3.23;100.00
71109;BME280;59614;51.012;-1.648;2023-03-14T06:43:55;99076.81;;;3.33;100.00
71109;BME280;59614;51.012;-1.648;2023-03-14T06:46:22;99088.06;;;3.39;100.00
71109;BME280;59614;51.012;-1.648;2023-03-14T06:48:47;99089.81;;;3.37;99.62
71109;BME280;59614;51.012;-1.648;2023-03-14T06:51:13;99091.56;;;3.37;99.50
71109;BME280;59614;51.012;-1.648;2023-03-14T06:53:38;99104.53;;;3.43;100.00
71109;BME280;59614;51.012;-1.648;2023-03-14T06:56:04;99095.88;;;3.38;99.63
71109;BME280;59614;51.012;-1.648;2023-03-14T06:58:30;99107.19;;;3.38;99.81
71109;BME280;59614;51.012;-1.648;2023-03-14T07:00:55;99108.91;;;3.43;99.08
71109;BME280;59614;51.012;-1.648;2023-03-14T07:03:22;99116.63;;;3.50;98.98
71109;BME280;59614;51.012;-1.648;2023-03-14T07:05:48;99120.94;;;3.58;99.06
71109;BME280;59614;51.012;-1.648;2023-03-14T07:08:13;99115.66;;;3.61;98.65
71109;BME280;59614;51.012;-1.648;2023-03-14T07:10:39;99132.09;;;3.72;98.09
71109;BME280;59614;51.012;-1.648;2023-03-14T07:13:04;99140.69;;;3.85;96.28
71109;BME280;59614;51.012;-1.648;2023-03-14T07:15:30;99151.81;;;4.02;95.46
71109;BME280;59614;51.012;-1.648;2023-03-14T07:17:55;99161.28;;;4.13;94.97
71109;BME280;59614;51.012;-1.648;2023-03-14T07:20:21;99159.44;;;4.23;94.43
71109;BME280;59614;51.012;-1.648;2023-03-14T07:22:47;99172.34;;;4.38;94.29
71109;BME280;59614;51.012;-1.648;2023-03-14T07:25:14;99169.69;;;4.43;93.38
71109;BME280;59614;51.012;-1.648;2023-03-14T07:27:40;99180.81;;;4.57;91.00
71109;BME280;59614;51.012;-1.648;2023-03-14T07:30:08;99185.00;;;4.72;91.16
71109;BME280;59614;51.012;-1.648;2023-03-14T07:32:33;99195.53;;;4.63;89.75
71109;BME280;59614;51.012;-1.648;2023-03-14T07:34:59;99203.09;;;4.89;90.87
71109;BME280;59614;51.012;-1.648;2023-03-14T07:37:24;99205.69;;;4.88;90.55
71109;BME280;59614;51.012;-1.648;2023-03-14T07:39:50;99196.22;;;4.79;90.33
71109;BME280;59614;51.012;-1.648;2023-03-14T07:42:15;99198.59;;;4.99;91.24
71109;BME280;59614;51.012;-1.648;2023-03-14T07:44:40;99225.16;;;4.65;92.80
71109;BME280;59614;51.012;-1.648;2023-03-14T07:47:06;99239.63;;;4.94;91.49
71109;BME280;59614;51.012;-1.648;2023-03-14T07:49:31;99241.31;;;5.00;91.77
71109;BME280;59614;51.012;-1.648;2023-03-14T07:51:57;99255.94;;;5.15;91.60
71109;BME280;59614;51.012;-1.648;2023-03-14T07:54:23;99257.44;;;5.31;92.24
71109;BME280;59614;51.012;-1.648;2023-03-14T07:56:50;99258.97;;;5.48;91.91
71109;BME280;59614;51.012;-1.648;2023-03-14T07:59:15;99268.25;;;5.67;91.18
71109;BME280;59614;51.012;-1.648;2023-03-14T08:01:41;99265.84;;;5.52;90.69
71109;BME280;59614;51.012;-1.648;2023-03-14T08:04:06;99274.53;;;5.57;90.95
71109;BME280;59614;51.012;-1.648;2023-03-14T08:06:31;99275.13;;;5.76;91.89
71109;BME280;59614;51.012;-1.648;2023-03-14T08:08:57;99288.53;;;5.54;92.31
71109;BME280;59614;51.012;-1.648;2023-03-14T08:11:22;99287.53;;;5.62;92.27
71109;BME280;59614;51.012;-1.648;2023-03-14T08:13:48;99301.97;;;5.89;91.75
71109;BME280;59614;51.012;-1.648;2023-03-14T08:16:18;99309.53;;;6.11;91.06
71109;BME280;59614;51.012;-1.648;2023-03-14T08:18:44;99308.78;;;6.02;91.06
71109;BME280;59614;51.012;-1.648;2023-03-14T08:21:10;99315.38;;;5.67;89.65
71109;BME280;59614;51.012;-1.648;2023-03-14T08:23:36;99328.19;;;5.86;93.10
71109;BME280;59614;51.012;-1.648;2023-03-14T08:26:01;99324.28;;;5.55;90.55
71109;BME280;59614;51.012;-1.648;2023-03-14T08:28:27;99351.44;;;5.47;90.66
71109;BME280;59614;51.012;-1.648;2023-03-14T08:30:57;99347.00;;;5.52;91.22
71109;BME280;59614;51.012;-1.648;2023-03-14T08:33:23;99361.88;;;5.48;91.88
71109;BME280;59614;51.012;-1.648;2023-03-14T08:35:54;99369.00;;;5.38;90.27
71109;BME280;59614;51.012;-1.648;2023-03-14T08:38:20;99369.81;;;5.42;91.87
71109;BME280;59614;51.012;-1.648;2023-03-14T08:40:46;99380.94;;;5.61;92.25
71109;BME280;59614;51.012;-1.648;2023-03-14T08:43:11;99391.47;;;5.55;90.82
71109;BME280;59614;51.012;-1.648;2023-03-14T08:45:37;99401.09;;;5.51;90.83
71109;BME280;59614;51.012;-1.648;2023-03-14T08:48:02;99408.28;;;5.35;86.71
71109;BME280;59614;51.012;-1.648;2023-03-14T08:50:28;99418.00;;;5.24;84.49
71109;BME280;59614;51.012;-1.648;2023-03-14T08:52:53;99420.56;;;5.29;86.35
71109;BME280;59614;51.012;-1.648;2023-03-14T08:55:19;99435.31;;;5.34;84.97
71109;BME280;59614;51.012;-1.648;2023-03-14T08:57:45;99449.28;;;5.33;86.17
71109;BME280;59614;51.012;-1.648;2023-03-14T09:00:11;99455.44;;;5.29;83.88
71109;BME280;59614;51.012;-1.648;2023-03-14T09:02:43;99457.09;;;5.35;82.15
71109;BME280;59614;51.012;-1.648;2023-03-14T09:05:08;99471.03;;;5.37;83.30
71109;BME280;59614;51.012;-1.648;2023-03-14T09:07:35;99472.59;;;5.55;85.53
71109;BME280;59614;51.012;-1.648;2023-03-14T09:10:01;99471.78;;;5.48;83.77
71109;BME280;59614;51.012;-1.648;2023-03-14T09:12:26;99490.03;;;5.56;86.58
71109;BME280;59614;51.012;-1.648;2023-03-14T09:14:52;99491.03;;;5.43;83.57
71109;BME280;59614;51.012;-1.648;2023-03-14T09:17:17;99503.34;;;5.34;82.05
71109;BME280;59614;51.012;-1.648;2023-03-14T09:19:42;99503.28;;;5.42;83.21
71109;BME280;59614;51.012;-1.648;2023-03-14T09:22:08;99532.19;;;5.30;79.27
71109;BME280;59614;51.012;-1.648;2023-03-14T09:24:33;99521.63;;;5.36;78.77
71109;BME280;59614;51.012;-1.648;2023-03-14T09:26:59;99533.81;;;5.40;79.33
71109;BME280;59614;51.012;-1.648;2023-03-14T09:29:24;99538.16;;;5.43;82.24
71109;BME280;59614;51.012;-1.648;2023-03-14T09:31:50;99547.03;;;5.29;81.86
71109;BME280;59614;51.012;-1.648;2023-03-14T09:34:15;99554.78;;;6.21;79.05
71109;BME280;59614;51.012;-1.648;2023-03-14T09:36:41;99562.13;;;7.19;79.72
71109;BME280;59614;51.012;-1.648;2023-03-14T09:39:09;99551.53;;;7.72;76.10
71109;BME280;59614;51.012;-1.648;2023-03-14T09:41:39;99569.03;;;7.73;76.07
71109;BME280;59614;51.012;-1.648;2023-03-14T09:44:29;99569.06;;;7.72;75.45
71109;BME280;59614;51.012;-1.648;2023-03-14T09:47:00;99580.66;;;8.51;73.13
71109;BME280;59614;51.012;-1.648;2023-03-14T09:49:33;99603.91;;;7.32;73.59
71109;BME280;59614;51.012;-1.648;2023-03-14T09:52:01;99615.44;;;6.60;78.21
71109;BME280;59614;51.012;-1.648;2023-03-14T09:56:59;99655.28;;;5.13;86.67
71109;BME280;59614;51.012;-1.648;2023-03-14T09:59:25;99651.00;;;4.98;89.91
71109;BME280;59614;51.012;-1.648;2023-03-14T10:01:52;99655.22;;;5.17;92.94
71109;BME280;59614;51.012;-1.648;2023-03-14T10:04:21;99643.69;;;5.48;93.44
71109;BME280;59614;51.012;-1.648;2023-03-14T10:06:48;99660.16;;;5.62;91.56
71109;BME280;59614;51.012;-1.648;2023-03-14T10:09:20;99681.28;;;5.37;92.24
71109;BME280;59614;51.012;-1.648;2023-03-14T10:11:52;99681.91;;;5.64;91.22
71109;BME280;59614;51.012;-1.648;2023-03-14T10:14:32;99686.69;;;6.93;88.91
71109;BME280;59614;51.012;-1.648;2023-03-14T10:17:05;99695.34;;;6.99;86.13
71109;BME280;59614;51.012;-1.648;2023-03-14T10:19:32;99697.31;;;6.08;86.15
71109;BME280;59614;51.012;-1.648;2023-03-14T10:22:01;99706.09;;;6.02;88.47
71109;BME280;59614;51.012;-1.648;2023-03-14T10:24:33;99713.19;;;5.83;89.82
71109;BME280;59614;51.012;-1.648;2023-03-14T10:27:02;99720.06;;;5.98;89.48
71109;BME280;59614;51.012;-1.648;2023-03-14T10:29:33;99717.34;;;6.09;85.88
71109;BME280;59614;51.012;-1.648;2023-03-14T10:32:06;99735.72;;;6.04;85.94
71109;BME280;59614;51.012;-1.648;2023-03-14T10:34:37;99737.44;;;6.11;85.73
71109;BME280;59614;51.012;-1.648;2023-03-14T10:37:21;99739.31;;;6.81;82.80
71109;BME280;59614;51.012;-1.648;2023-03-14T10:39:49;99751.47;;;7.54;79.02
71109;BME280;59614;51.012;-1.648;2023-03-14T10:42:22;99757.44;;;8.17;75.55
71109;BME280;59614;51.012;-1.648;2023-03-14T10:44:53;99768.16;;;7.48;74.05
71109;BME280;59614;51.012;-1.648;2023-03-14T10:47:22;99785.13;;;6.49;78.75
71109;BME280;59614;51.012;-1.648;2023-03-14T10:49:48;99788.03;;;6.16;80.65
71109;BME280;59614;51.012;-1.648;2023-03-14T10:52:22;99800.91;;;6.44;81.02
71109;BME280;59614;51.012;-1.648;2023-03-14T10:54:57;99814.16;;;7.11;76.83
71109;BME280;59614;51.012;-1.648;2023-03-14T10:57:24;99815.88;;;6.30;77.66
71109;BME280;59614;51.012;-1.648;2023-03-14T10:59:50;99825.84;;;6.84;77.94
71109;BME280;59614;51.012;-1.648;2023-03-14T11:05:29;99836.91;;;7.78;71.73
71109;BME280;59614;51.012;-1.648;2023-03-14T11:07:39;99835.41;;;6.88;72.26
71109;BME280;59614;51.012;-1.648;2023-03-14T11:10:18;99843.66;;;6.51;74.31
71109;BME280;59614;51.012;-1.648;2023-03-14T11:15:41;99854.91;;;8.61;68.48
71109;BME280;59614;51.012;-1.648;2023-03-14T11:23:24;99890.75;;;6.59;74.17
71109;BME280;59614;51.012;-1.648;2023-03-14T11:28:39;99896.41;;;5.98;77.41
71109;BME280;59614;51.012;-1.648;2023-03-14T11:31:12;99907.44;;;7.40;74.67
71109;BME280;59614;51.012;-1.648;2023-03-14T11:39:20;99914.09;;;7.69;68.91
71109;BME280;59614;51.012;-1.648;2023-03-14T11:41:49;99905.31;;;7.69;69.51
71109;BME280;59614;51.012;-1.648;2023-03-14T11:47:06;99914.38;;;7.45;70.38
71109;BME280;59614;51.012;-1.648;2023-03-14T11:49:47;99928.53;;;8.04;65.55
71109;BME280;59614;51.012;-1.648;2023-03-14T11:55:00;99934.72;;;9.57;64.92
71109;BME280;59614;51.012;-1.648;2023-03-14T11:57:28;99947.13;;;9.03;63.97
71109;BME280;59614;51.012;-1.648;2023-03-14T12:00:14;99940.78;;;8.63;66.64
71109;BME280;59614;51.012;-1.648;2023-03-14T12:08:39;99948.66;;;10.04;61.18
71109;BME280;59614;51.012;-1.648;2023-03-14T12:11:12;99950.75;;;9.90;61.08
71109;BME280;59614;51.012;-1.648;2023-03-14T12:13:39;99950.16;;;10.57;62.55
71109;BME280;59614;51.012;-1.648;2023-03-14T12:16:19;99951.13;;;10.89;59.34
71109;BME280;59614;51.012;-1.648;2023-03-14T12:18:50;99958.59;;;11.72;58.92
71109;BME280;59614;51.012;-1.648;2023-03-14T12:21:16;99957.53;;;10.79;63.59
71109;BME280;59614;51.012;-1.648;2023-03-14T12:26:24;99969.06;;;11.09;58.64
71109;BME280;59614;51.012;-1.648;2023-03-14T12:28:52;99970.97;;;10.30;62.13
71109;BME280;59614;51.012;-1.648;2023-03-14T12:31:37;99985.56;;;9.15;63.20
71109;BME280;59614;51.012;-1.648;2023-03-14T12:34:03;99985.34;;;9.27;62.30
71109;BME280;59614;51.012;-1.648;2023-03-14T12:36:55;99980.69;;;8.92;64.52
71109;BME280;59614;51.012;-1.648;2023-03-14T12:45:25;99990.72;;;10.89;59.10
71109;BME280;59614;51.012;-1.648;2023-03-14T12:48:04;100003.75;;;10.59;57.21
71109;BME280;59614;51.012;-1.648;2023-03-14T12:50:46;100003.88;;;9.23;58.19
71109;BME280;59614;51.012;-1.648;2023-03-14T12:53:22;100002.69;;;8.88;61.04
71109;BME280;59614;51.012;-1.648;2023-03-14T12:58:53;99989.00;;;9.67;55.13
71109;BME280;59614;51.012;-1.648;2023-03-14T13:01:21;100002.03;;;10.16;54.98
71109;BME280;59614;51.012;-1.648;2023-03-14T13:03:52;99995.19;;;10.48;56.24
71109;BME280;59614;51.012;-1.648;2023-03-14T13:12:16;99990.63;;;10.56;54.43
71109;BME280;59614;51.012;-1.648;2023-03-14T13:14:45;100000.84;;;9.90;61.17
71109;BME280;59614;51.012;-1.648;2023-03-14T13:17:13;99993.81;;;11.07;59.50
71109;BME280;59614;51.012;-1.648;2023-03-14T13:19:39;100003.31;;;11.14;54.20
71109;BME280;59614;51.012;-1.648;2023-03-14T13:22:15;100002.94;;;9.72;56.81
71109;BME280;59614;51.012;-1.648;2023-03-14T13:24:41;100013.28;;;9.82;58.66
71109;BME280;59614;51.012;-1.648;2023-03-14T13:27:17;100004.94;;;10.46;58.45
71109;BME280;59614;51.012;-1.648;2023-03-14T13:29:43;100003.63;;;11.36;57.44
71109;BME280;59614;51.012;-1.648;2023-03-14T13:32:28;100001.94;;;11.32;57.10
71109;BME280;59614;51.012;-1.648;2023-03-14T13:34:59;100012.94;;;10.80;56.91
71109;BME280;59614;51.012;-1.648;2023-03-14T13:37:26;100018.16;;;11.20;57.59
71109;BME280;59614;51.012;-1.648;2023-03-14T13:39:56;100012.94;;;11.83;55.89
71109;BME280;59614;51.012;-1.648;2023-03-14T13:42:28;100028.28;;;11.35;55.43
71109;BME280;59614;51.012;-1.648;2023-03-14T13:44:56;100030.78;;;11.07;56.80
71109;BME280;59614;51.012;-1.648;2023-03-14T13:47:23;100022.84;;;11.08;54.96
71109;BME280;59614;51.012;-1.648;2023-03-14T13:49:50;100029.97;;;11.39;56.92
71109;BME280;59614;51.012;-1.648;2023-03-14T13:52:35;100037.72;;;11.46;54.22
71109;BME280;59614;51.012;-1.648;2023-03-14T13:55:02;100035.75;;;10.83;55.25
71109;BME280;59614;51.012;-1.648;2023-03-14T13:57:46;100043.00;;;11.46;54.54